HAW weather

Torre Bosques Heliport
Huixquilucan, México (state), Mexico

Public forecast

Using degrees Celsius for public forecast. Weather courtesy of forecast.io.

Closest aviation weather report (METAR) to Torre Bosques Heliport

Closest report is Licenciado Benito Juarez International Airport, 12.2 nm (22.5 km) E. Retrieved 2020/01/18 18:49 UTC (1 hour ago):

MMMX 181849Z 04007KT 6SM SCT025 21/04 A3033 NOSIG RMK 8/100 HZY CI

Closest aviation forecast (TAF) to Torre Bosques Heliport

Closest forecast is Licenciado Benito Juarez International Airport, 12.2 nm (22.5 km) E. Retrieved 2020/01/18 18:18 UTC (2 hours ago):

TAF MMMX 181616Z 1818/1924 06010KT 6SM HZ SCT020 SCT200 TX23/1821Z TN10/1912Z BECMG 1820/1821 BKN020 TEMPO 1822/1902 5SM TSRA BKN020CB FM190200 06008KT 6SM HZ SCT020 BKN100 BKN200 TEMPO 1904/1908 5SM -RA BKN020CB FM191000 06005KT 5SM HZ BKN015 BKN080 TEMPO 1912/1915 1SM BR BKN010 FM191600 03005KT 5SM HZ SCT105 BKN080 FM191800 06010KT 6SM HZ SCT020 BKN100